Flight Track Log - Related Links

Times and Time Zones

All times are in EDT time to prevent confusion due to time zone crossing. See the GJS3707 flight status page for this flight to view local times or setup timezone preferences in your user account.

Time Position Orientation Groundspeed Altitude Reporting Facility
EDT Latitude Longitude Course Direction KTS MPH feet Rate Location/Type
Tue 03:10:02 PM 43.5892 -116.2989 81° East 222 255 4,400  Level Salt Center
Tue 03:11:04 PM 43.6381 -116.3589 318° Northwest 253 291 6,500 1,839 Climbing Salt Center
Tue 03:12:00 PM 43.6465 -115.5851 82° East  Level FlightAware
Tue 03:12:06 PM 43.6994 -116.2975 36° Northeast 282 325 8,200  Level Salt Center
Tue 03:13:00 PM 43.6673 -115.4275 81° East  Level FlightAware
Tue 03:13:08 PM 43.7142 -116.1939 79° East 288 331 10,300  Level Salt Center
Tue 03:14:00 PM 43.6885 -115.2677 65° Northeast  Level FlightAware
Tue 03:14:10 PM 43.7281 -116.0672 81° East 300 345 11,700  Level Salt Center
Tue 03:15:00 PM 43.7141 -115.1072 81° East  Level FlightAware
Tue 03:15:12 PM 43.7419 -115.9422 81° East 338 389 12,800  Level Salt Center
Tue 03:16:14 PM 43.7586 -115.7864 82° East 365 420 14,500 1,500 Climbing Salt Center
Tue 03:17:16 PM 43.7744 -115.6469 81° East 381 438 15,900 1,548 Climbing Salt Center
Tue 03:18:18 PM 43.7925 -115.4797 81° East 393 452 17,700 1,694 Climbing Salt Center
Tue 03:19:20 PM 43.8067 -115.3389 82° East 390 449 19,400 1,597 Climbing Salt Center
Tue 03:20:22 PM 43.8244 -115.1694 82° East 397 457 21,000 1,317 Climbing Salt Center
Tue 03:21:23 PM 43.8400 -115.0211 82° East 405 466 22,100 1,122 Climbing Salt Center
Tue 03:22:25 PM 43.8586 -114.8417 82° East 421 484 23,300 1,113 Climbing Salt Center
Tue 03:23:27 PM 43.8647 -114.6847 87° East 426 490 24,400 1,113 Climbing Salt Center
Tue 03:24:29 PM 43.8808 -114.5008 83° East 433 498 25,600 968 Climbing Salt Center
Tue 03:25:31 PM 43.8981 -114.3386 82° East 444 511 26,400 726 Climbing Salt Center
Tue 03:26:33 PM 43.9142 -114.1736 82° East 452 520 27,100 774 Climbing Salt Center
Tue 03:27:35 PM 43.9322 -113.9756 83° East 462 532 28,000 823 Climbing Salt Center
Tue 03:28:37 PM 43.9506 -113.8019 82° East 470 541 28,800 823 Climbing Salt Center
Tue 03:29:39 PM 43.9694 -113.6006 83° East 473 544 29,700 823 Climbing Salt Center
Tue 03:30:41 PM 43.9833 -113.4242 84° East 479 551 30,500 829 Climbing Salt Center
Tue 03:31:42 PM 44.0014 -113.2192 83° East 480 552 31,400 732 Climbing Salt Center
Tue 03:32:44 PM 44.0189 -113.0442 82° East 479 551 32,000 629 Climbing Salt Center
Tue 03:33:46 PM 44.0342 -112.8375 84° East 482 555 32,700 677 Climbing Salt Center
Tue 03:34:48 PM 44.0500 -112.6583 83° East 486 559 33,400 726 Climbing Salt Center
Tue 03:35:50 PM 44.0675 -112.4519 83° East 485 558 34,200 726 Climbing Salt Center
Tue 03:36:52 PM 44.0819 -112.2733 84° East 485 558 34,900 677 Climbing Salt Center
Tue 03:37:54 PM 44.0900 -112.0681 87° East 480 552 35,600 677 Climbing Salt Center
Tue 03:38:56 PM 44.0908 -111.8928 90° East 477 549 36,300 677 Climbing Salt Center
Tue 03:39:58 PM 44.0917 -111.7169 90° East 477 549 37,000 339 Climbing Salt Center
Tue 03:41:00 PM 44.0931 -111.5122 89° East 479 551 37,000  Level Salt Center
Tue 03:42:01 PM 44.0931 -111.3308 90° East 490 564 37,000  Level Salt Center
Tue 03:43:03 PM 44.0944 -111.1167 89° East 499 574 37,000  Level Salt Center
Tue 03:44:05 PM 44.0939 -110.9336 90° East 499 574 37,000  Level Salt Center
Tue 03:45:07 PM 44.0942 -110.7217 90° East 495 570 37,000  Level Salt Center
Tue 03:46:09 PM 44.0947 -110.5378 90° East 498 573 37,000  Level Salt Center
Tue 03:47:11 PM 44.0714 -110.3325 99° East 484 557 37,000  Level Salt Center
Tue 03:48:12 PM 44.0397 -110.1614 104° East 481 554 37,000  Level Salt Center
Tue 03:49:14 PM 44.0011 -109.9642 105° East 476 548 37,000  Level Salt Center
Tue 03:50:16 PM 44.0019 -109.7886 90° East 476 548 37,000  Level Salt Center
Tue 03:51:18 PM 44.0089 -109.5817 87° East 480 552 37,000  Level Salt Center
Tue 03:52:19 PM 44.0133 -109.4056 88° East 478 550 37,000  Level Salt Center
Tue 03:53:21 PM 44.0186 -109.1989 88° East 479 551 37,000  Level Salt Center
Tue 03:54:23 PM 44.0228 -109.0203 88° East 482 555 37,000  Level Salt Center
Tue 03:55:25 PM 44.0269 -108.8433 88° East 481 554 37,000  Level Salt Center
Tue 03:56:27 PM 44.0308 -108.6378 88° East 478 550 37,000  Level Salt Center
Tue 03:57:29 PM 44.0350 -108.4586 88° East 483 556 37,000  Level Salt Center
Tue 03:58:30 PM 44.0381 -108.2653 89° East 483 556 37,000  Level Salt Center
Tue 03:59:32 PM 44.0417 -108.0578 89° East 482 555 37,000  Level Salt Center
Tue 04:00:34 PM 44.0439 -107.8808 89° East 479 551 37,000  Level Salt Center
Tue 04:01:36 PM 44.0461 -107.6736 89° East 480 552 37,000  Level Salt Center
Tue 04:02:38 PM 44.0483 -107.4947 89° East 482 555 37,000  Level Salt Center
Tue 04:03:39 PM 44.0503 -107.3167 89° East 483 556 37,000  Level Salt Center
Tue 04:04:41 PM 44.0517 -107.1214 89° East 479 551 37,000  Level Salt Center
Tue 04:05:43 PM 44.0531 -106.9142 89° East 479 551 37,000  Level Salt Center
Tue 04:06:45 PM 44.0539 -106.7364 90° East 480 552 37,000  Level Salt Center
Tue 04:07:47 PM 44.0556 -106.5294 89° East 479 551 37,000  Level Salt Center
Tue 04:08:49 PM 44.0544 -106.3531 90° East 478 550 37,000  Level Salt Center
Tue 04:09:51 PM 44.0547 -106.1464 90° East 478 550 37,000  Level Salt Center
Tue 04:10:54 PM 44.0544 -105.9719 90° East 476 548 37,000  Level Salt Center
Tue 04:11:55 PM 44.0519 -105.7969 91° East 475 547 37,000  Level Salt Center
Tue 04:12:57 PM 44.0517 -105.5903 90° East 478 550 37,000  Level Salt Center
Tue 04:13:59 PM 44.0503 -105.4142 91° East 476 548 37,000  Level Salt Center
Tue 04:15:01 PM 44.0478 -105.2094 91° East 475 547 37,000  Level Salt Center
Tue 04:16:03 PM 44.0461 -105.0342 91° East 475 547 37,000  Level Salt Center
Tue 04:17:05 PM 44.0439 -104.8286 91° East 475 547 37,000  Level Salt Center
Tue 04:18:07 PM 44.0411 -104.6531 91° East 475 547 37,000  Level Salt Center
Tue 04:19:25 PM 44.0372 -104.4158 91° East 474 545 37,000  Level Denver Center
Tue 04:20:39 PM 44.0331 -104.1886 91° East 466 536 37,000  Level Denver Center
Tue 04:21:41 PM 44.0297 -104.0150 91° East 467 537 37,000  Level Denver Center
Tue 04:22:43 PM 44.0264 -103.8128 91° East 468 539 37,000  Level Denver Center
Tue 04:23:45 PM 44.0211 -103.6392 92° East 469 540 37,000  Level Denver Center
Tue 04:24:47 PM 44.0169 -103.4361 92° East 470 541 37,000  Level Denver Center
Tue 04:25:49 PM 44.0117 -103.2633 92° East 468 539 37,000  Level Denver Center
Tue 04:26:51 PM 44.0069 -103.0639 92° East 465 535 37,000  Level Denver Center
Tue 04:27:53 PM 44.0019 -102.8900 92° East 469 540 37,000  Level Denver Center
Tue 04:29:25 PM 43.9903 -102.6053 93° East 470 541 37,000  Level Minneapolis Center
Tue 04:29:56 PM 43.9875 -102.5314 93° East 473 544 37,000  Level Denver Center
Tue 04:30:58 PM 43.9792 -102.3147 93° East 472 543 37,000  Level Denver Center
Tue 04:32:00 PM 43.9733 -102.1339 93° East 471 542 37,000  Level Denver Center
Tue 04:33:02 PM 43.9639 -101.9508 94° East 474 545 37,000 387 Level Denver Center
Tue 04:34:04 PM 43.9558 -101.7681 93° East 476 548 37,800 774 Climbing Denver Center
Tue 04:35:06 PM 43.9531 -101.5956 91° East 458 527 38,600 581 Climbing Denver Center
Tue 04:36:08 PM 43.9458 -101.4225 93° East 450 518 39,000 255 Climbing Denver Center
Tue 04:36:40 PM 43.9383 -101.3164 96° East 460 529 39,000  Level Minneapolis Center
Tue 04:37:42 PM 43.9328 -101.1458 93° East 452 520 39,000  Level Minneapolis Center
Tue 04:38:44 PM 43.9247 -100.9725 94° East 452 520 39,000  Level Minneapolis Center
Tue 04:39:46 PM 43.9150 -100.7617 94° East 456 525 39,000  Level Minneapolis Center
Tue 04:40:48 PM 43.9061 -100.5858 94° East 458 527 39,000  Level Minneapolis Center
Tue 04:41:50 PM 43.8967 -100.4097 94° East 459 528 39,000  Level Minneapolis Center
Tue 04:42:52 PM 43.8869 -100.2342 94° East 460 529 39,000  Level Minneapolis Center
Tue 04:43:54 PM 43.8797 -100.0592 93° East 458 527 39,000  Level Minneapolis Center
Tue 04:44:56 PM 43.8728 -99.8903 93° East 449 517 39,000  Level Minneapolis Center
Tue 04:45:58 PM 43.8617 -99.6839 94° East 449 517 39,000  Level Minneapolis Center
Tue 04:47:00 PM 43.8536 -99.5131 94° East 447 514 39,000  Level Minneapolis Center
Tue 04:48:02 PM 43.8453 -99.3453 94° East 442 509 39,000  Level Minneapolis Center
Tue 04:49:04 PM 43.8367 -99.1767 94° East 440 506 39,000  Level Minneapolis Center
Tue 04:50:06 PM 43.8272 -99.0069 94° East 442 509 39,000  Level Minneapolis Center
Tue 04:51:08 PM 43.8167 -98.8033 94° East 444 511 39,000  Level Minneapolis Center
Tue 04:52:10 PM 43.8072 -98.6456 95° East 446 513 39,000  Level Minneapolis Center
Tue 04:53:13 PM 43.7983 -98.4753 94° East 447 514 39,000  Level Minneapolis Center
Tue 04:54:15 PM 43.7872 -98.3044 95° East 448 516 39,000  Level Minneapolis Center
Tue 04:55:17 PM 43.7747 -98.0983 95° East 448 516 39,000  Level Minneapolis Center
Tue 04:56:19 PM 43.7639 -97.9267 95° East 449 517 39,000  Level Minneapolis Center
Tue 04:57:21 PM 43.7528 -97.7567 95° East 448 516 39,000  Level Minneapolis Center
Tue 04:58:23 PM 43.7419 -97.5867 95° East 446 513 39,000  Level Minneapolis Center
Tue 04:59:25 PM 43.7300 -97.4144 95° East 450 518 39,000  Level Minneapolis Center
Tue 05:00:27 PM 43.7158 -97.2114 95° East 446 513 39,000  Level Minneapolis Center
Tue 05:01:29 PM 43.7031 -97.0400 96° East 449 517 39,000  Level Minneapolis Center
Tue 05:02:31 PM 43.6900 -96.8697 96° East 449 517 39,000  Level Minneapolis Center
Tue 05:03:33 PM 43.6789 -96.7019 95° East 446 513 39,000  Level Minneapolis Center
Tue 05:04:35 PM 43.6658 -96.5311 96° East 449 517 39,000  Level Minneapolis Center
Tue 05:05:37 PM 43.6503 -96.3283 96° East 448 516 39,000  Level Minneapolis Center
Tue 05:06:39 PM 43.6364 -96.1592 96° East 449 517 39,000  Level Minneapolis Center
Tue 05:07:42 PM 43.6233 -95.9906 96° East 447 514 39,000  Level Minneapolis Center
Tue 05:08:44 PM 43.6100 -95.8225 96° East 446 513 39,000  Level Minneapolis Center
Tue 05:09:46 PM 43.5950 -95.6536 97° East 447 514 39,000  Level Minneapolis Center
Tue 05:10:48 PM 43.5786 -95.4528 96° East 445 512 39,000  Level Minneapolis Center
Tue 05:11:50 PM 43.5644 -95.2858 97° East 443 510 39,000  Level Minneapolis Center
Tue 05:12:52 PM 43.5497 -95.1200 97° East 440 506 39,000  Level Minneapolis Center
Tue 05:13:54 PM 43.5344 -94.9564 97° East 435 501 39,000  Level Minneapolis Center
Tue 05:14:56 PM 43.5186 -94.7917 97° East 435 501 39,000  Level Minneapolis Center
Tue 05:15:58 PM 43.5033 -94.6281 97° East 434 499 39,000  Level Minneapolis Center
Tue 05:17:00 PM 43.4847 -94.4308 97° East 435 501 39,000  Level Minneapolis Center
Tue 05:18:02 PM 43.4683 -94.2675 98° East 435 501 39,000  Level Minneapolis Center
Tue 05:19:04 PM 43.4528 -94.1089 98° East 435 501 39,000  Level Minneapolis Center
Tue 05:20:06 PM 43.4364 -93.9461 98° East 434 499 39,000  Level Minneapolis Center
Tue 05:21:09 PM 43.4208 -93.7831 97° East 434 499 39,000  Level Minneapolis Center
Tue 05:22:11 PM 43.3997 -93.5908 99° East 430 495 39,000  Level Minneapolis Center
Tue 05:23:13 PM 43.3836 -93.4292 98° East 430 495 39,000 -97 Level Minneapolis Center
Tue 05:24:15 PM 43.3669 -93.2664 98° East 434 499 38,800 -629 Descending Minneapolis Center
Tue 05:25:17 PM 43.3489 -93.1056 99° East 431 496 37,700 -968 Descending Minneapolis Center
Tue 05:26:19 PM 43.3328 -92.9422 98° East 435 501 36,800 -1,016 Descending Minneapolis Center
Tue 05:27:21 PM 43.3106 -92.7464 99° East 436 502 35,600 -1,016 Descending Minneapolis Center
Tue 05:28:23 PM 43.2928 -92.5831 98° East 436 502 34,700 -823 Descending Minneapolis Center
Tue 05:29:25 PM 43.2744 -92.4206 99° East 436 502 33,900 -774 Descending Minneapolis Center
Tue 05:30:27 PM 43.2558 -92.2583 99° East 433 498 33,100 -774 Descending Minneapolis Center
Tue 05:31:29 PM 43.2372 -92.0978 99° East 430 495 32,300 -823 Descending Minneapolis Center
Tue 05:32:31 PM 43.2161 -91.9022 98° East 432 497 31,400 -624 Descending Minneapolis Center
Tue 05:33:34 PM 43.1961 -91.7353 99° East 441 507 31,000 -192 Descending Minneapolis Center
Tue 05:34:36 PM 43.1569 -91.5725 108° East 451 519 31,000  Level Minneapolis Center
Tue 05:35:38 PM 43.1028 -91.4158 115° Southeast 455 524 31,000  Level Minneapolis Center
Tue 05:36:31 PM 43.0475 -91.2606 116° Southeast 457 526 31,000 -466 Level Chicago Center
Tue 05:37:34 PM 42.9922 -91.1006 115° Southeast 465 535 30,100 -912 Descending Chicago Center
Tue 05:38:36 PM 42.9381 -90.9428 115° Southeast 462 532 29,100 -968 Descending Chicago Center
Tue 05:39:38 PM 42.8831 -90.7917 116° Southeast 452 520 28,100 -968 Descending Chicago Center
Tue 05:40:40 PM 42.8292 -90.6400 116° Southeast 449 517 27,100 -968 Descending Chicago Center
Tue 05:41:42 PM 42.7742 -90.4889 116° Southeast 448 516 26,100 -1,065 Descending Chicago Center
Tue 05:42:44 PM 42.7092 -90.3075 116° Southeast 448 516 24,900 -1,016 Descending Chicago Center
Tue 05:43:46 PM 42.6539 -90.1544 116° Southeast 452 520 24,000 -726 Descending Chicago Center
Tue 05:44:48 PM 42.6006 -90.0072 116° Southeast 444 511 23,400 -532 Descending Chicago Center
Tue 05:45:50 PM 42.5456 -89.8553 116° Southeast 418 481 22,900 -581 Descending Chicago Center
Tue 05:46:52 PM 42.5164 -89.7031 105° East 422 486 22,200 -871 Descending Chicago Center
Tue 05:47:54 PM 42.5147 -89.5428 91° East 425 489 21,100 -1,161 Descending Chicago Center
Tue 05:48:56 PM 42.5119 -89.3589 91° East 421 484 19,800 -1,392 Descending Chicago Center
Tue 05:49:59 PM 42.5089 -89.2008 91° East 420 483 18,200 -1,584 Descending Chicago Center
Tue 05:51:01 PM 42.5075 -89.0469 91° East 413 475 16,500 -1,935 Descending Chicago Center
Tue 05:52:03 PM 42.4958 -88.9036 96° East 387 445 14,200 -2,177 Descending Chicago Center
Tue 05:53:05 PM 42.4575 -88.7742 112° Southeast 372 428 12,000 -1,984 Descending Chicago Center
Tue 05:54:07 PM 42.4136 -88.6267 112° Southeast 363 418 10,100 -968 Descending Chicago Center
Tue 05:55:09 PM 42.3753 -88.5022 113° Southeast 359 413 10,000 -48 Descending Chicago Center
Tue 05:56:11 PM 42.3356 -88.3803 114° Southeast 357 411 10,000  Level Chicago Center
Tue 05:57:13 PM 42.2761 -88.2858 130° Southeast 357 411 10,000  Level Chicago Center
Tue 05:58:15 PM 42.2022 -88.1608 129° Southeast 356 410 10,000 -532 Level Chicago Center
Tue 05:59:17 PM 42.1406 -88.0833 137° Southeast 317 365 8,900 -1,377 Descending Chicago Center
Tue 06:00:17 PM 42.1000 -88.0000 123° Southeast 292 336 7,200 -950 Descending Chicago TRACON
Tue 06:01:17 PM 42.1000 -87.9000 90° East 247 284 7,000 -238 Descending Chicago TRACON
Tue 06:02:23 PM 42.1000 -87.8000 90° East 242 278 6,700 -857 Descending Chicago TRACON
Tue 06:03:23 PM 42.1000 -87.7167 90° East 240 276 5,200 -1,450 Descending Chicago TRACON
Tue 06:04:23 PM 42.0500 -87.6833 154° Southeast 233 268 3,800 -1,100 Descending Chicago TRACON
Tue 06:05:23 PM 42.0000 -87.7333 217° Southwest 196 226 3,000 -800 Descending Chicago TRACON

Login

Don't have an account? Register now (free) for customized features, flight alerts, and more!